createdAt,value
2022-12-04T00:01:25.736Z,43.92
2022-12-04T00:03:54.556Z,45.58
2022-12-04T00:06:25.168Z,43.78
2022-12-04T00:08:53.913Z,47.03
2022-12-04T00:11:24.039Z,45.85
2022-12-04T00:13:52.505Z,46.78
2022-12-04T00:16:23.909Z,42.60
2022-12-04T00:18:52.150Z,46.35
2022-12-04T00:21:21.628Z,44.90
2022-12-04T00:23:51.548Z,45.70
2022-12-04T00:26:22.609Z,48.03
2022-12-04T00:28:53.202Z,46.63
2022-12-04T00:31:24.941Z,43.35
2022-12-04T00:33:53.520Z,47.67
2022-12-04T00:36:23.947Z,45.85
2022-12-04T00:38:53.556Z,45.30
2022-12-04T00:41:26.776Z,46.35
2022-12-04T00:43:55.240Z,46.95
2022-12-04T00:46:23.952Z,45.17
2022-12-04T00:48:53.266Z,45.95
2022-12-04T00:51:23.352Z,46.90
2022-12-04T00:53:53.525Z,49.42
2022-12-04T00:56:24.131Z,47.00
2022-12-04T00:58:54.743Z,48.80
2022-12-04T01:01:24.506Z,46.50
2022-12-04T01:03:52.973Z,51.42
2022-12-04T01:06:23.294Z,46.97
2022-12-04T01:08:53.905Z,43.88
2022-12-04T01:11:23.103Z,47.55
2022-12-04T01:13:51.827Z,49.55
2022-12-04T01:16:22.752Z,49.42
2022-12-04T01:18:51.347Z,52.28
2022-12-04T01:21:20.233Z,50.42
2022-12-04T01:23:48.477Z,50.95
2022-12-04T01:26:18.252Z,51.78
2022-12-04T01:28:46.436Z,50.78
2022-12-04T01:31:16.913Z,49.17
2022-12-04T01:33:45.575Z,48.58
2022-12-04T01:36:15.838Z,51.33
2022-12-04T01:38:44.367Z,49.60
2022-12-04T01:41:14.523Z,52.28
2022-12-04T01:43:44.141Z,51.53
2022-12-04T01:46:12.907Z,49.92
2022-12-04T01:48:44.932Z,54.53
2022-12-04T01:51:18.756Z,51.42
2022-12-04T01:53:50.865Z,54.15
2022-12-04T01:56:20.669Z,47.97
2022-12-04T01:58:55.201Z,50.25
2022-12-04T02:01:23.787Z,52.50
2022-12-04T02:03:51.957Z,51.70
2022-12-04T02:06:20.131Z,54.65
2022-12-04T02:08:48.440Z,52.13
2022-12-04T02:11:28.344Z,59.75
2022-12-04T02:14:04.336Z,59.38
2022-12-04T02:16:38.904Z,59.20
2022-12-04T02:19:22.952Z,62.03
2022-12-04T02:21:53.609Z,59.97
2022-12-04T02:24:46.795Z,61.22
2022-12-04T02:27:32.027Z,56.30
2022-12-04T02:30:05.600Z,60.40
2022-12-04T02:32:40.927Z,69.32
2022-12-04T02:35:15.100Z,63.70
2022-12-04T02:37:47.085Z,56.92
2022-12-04T02:40:22.002Z,63.38
2022-12-04T02:42:59.185Z,55.30
2022-12-04T02:45:32.699Z,60.65
2022-12-04T02:48:05.565Z,63.85
2022-12-04T02:50:38.659Z,59.58
2022-12-04T02:53:11.576Z,55.55
2022-12-04T02:55:43.925Z,59.25
2022-12-04T02:58:17.511Z,61.95
2022-12-04T03:00:49.784Z,56.72
2022-12-04T03:03:22.700Z,62.90
2022-12-04T03:05:57.165Z,66.53
2022-12-04T03:08:30.841Z,66.20
2022-12-04T03:11:01.507Z,61.13
2022-12-04T03:13:34.525Z,55.42
2022-12-04T03:16:08.533Z,63.03
2022-12-04T03:18:41.137Z,57.92
2022-12-04T03:21:12.207Z,59.92
2022-12-04T03:23:45.385Z,59.78
2022-12-04T03:26:20.268Z,54.58
2022-12-04T03:28:52.825Z,60.28
2022-12-04T03:31:30.612Z,58.55
2022-12-04T03:34:02.369Z,59.88
2022-12-04T03:36:34.697Z,62.38
2022-12-04T03:39:09.620Z,59.40
2022-12-04T03:41:50.101Z,56.70
2022-12-04T03:44:24.450Z,63.47
2022-12-04T03:47:00.206Z,57.50
2022-12-04T03:49:34.581Z,60.10
2022-12-04T03:52:08.431Z,59.55
2022-12-04T03:54:42.083Z,59.30
2022-12-04T03:57:15.332Z,58.65
2022-12-04T03:59:51.130Z,57.67
2022-12-04T04:02:29.142Z,60.75
2022-12-04T04:04:59.971Z,63.90
2022-12-04T04:07:35.818Z,61.05
2022-12-04T04:10:08.930Z,60.75
2022-12-04T04:12:42.588Z,60.42
2022-12-04T04:15:32.385Z,61.47
2022-12-04T04:18:20.716Z,59.42
2022-12-04T04:21:11.441Z,62.53
2022-12-04T04:24:01.479Z,59.25
2022-12-04T04:26:34.458Z,62.05
2022-12-04T04:29:02.943Z,64.18
2022-12-04T04:31:39.293Z,59.05
2022-12-04T04:34:15.818Z,59.25
2022-12-04T04:36:55.222Z,56.72
2022-12-04T04:39:31.628Z,60.33
2022-12-04T04:42:05.865Z,64.20
2022-12-04T04:44:42.227Z,62.90
2022-12-04T04:47:17.732Z,65.43
2022-12-04T04:49:51.056Z,60.45
2022-12-04T04:52:21.350Z,64.80
2022-12-04T04:54:49.502Z,62.90
2022-12-04T04:57:27.767Z,61.90
2022-12-04T04:59:56.005Z,61.00
2022-12-04T05:02:26.921Z,71.90
2022-12-04T05:04:56.924Z,72.95
2022-12-04T05:07:25.073Z,66.43
2022-12-04T05:09:53.283Z,69.88
2022-12-04T05:12:21.598Z,74.97
2022-12-04T05:14:49.848Z,75.32
2022-12-04T05:17:18.321Z,63.97
2022-12-04T05:19:56.669Z,71.15
2022-12-04T05:22:29.092Z,73.22
2022-12-04T05:24:57.638Z,68.85
2022-12-04T05:27:27.021Z,68.32
2022-12-04T05:29:56.265Z,69.70
2022-12-04T05:32:26.077Z,75.53
2022-12-04T05:34:56.048Z,62.13
2022-12-04T05:37:25.099Z,74.63
2022-12-04T05:39:55.045Z,70.18
2022-12-04T05:42:23.545Z,76.22
2022-12-04T05:44:51.676Z,73.00
2022-12-04T05:47:19.841Z,68.60
2022-12-04T05:49:48.005Z,72.68
2022-12-04T05:52:16.310Z,76.70
2022-12-04T05:54:44.433Z,68.30
2022-12-04T05:57:13.989Z,70.63
2022-12-04T05:59:42.170Z,70.70
2022-12-04T06:02:10.363Z,68.47
2022-12-04T06:04:38.907Z,68.43
2022-12-04T06:07:07.082Z,66.22
2022-12-04T06:09:35.245Z,69.65
2022-12-04T06:12:03.527Z,74.32
2022-12-04T06:14:39.131Z,74.05
2022-12-04T06:17:08.030Z,72.13
2022-12-04T06:19:36.228Z,75.75
2022-12-04T06:22:04.437Z,63.28
2022-12-04T06:24:32.616Z,73.80
2022-12-04T06:29:50.852Z,75.00
2022-12-04T06:32:21.872Z,63.78
2022-12-04T06:34:53.146Z,64.00
2022-12-04T06:37:22.262Z,74.05
2022-12-04T06:39:50.543Z,76.57
2022-12-04T06:42:18.907Z,64.05
2022-12-04T06:44:47.073Z,71.47
2022-12-04T06:47:16.573Z,64.47
2022-12-04T06:49:46.061Z,60.83
2022-12-04T06:52:14.238Z,67.82
2022-12-04T06:54:42.524Z,64.32
2022-12-04T06:57:10.736Z,66.35
2022-12-04T06:59:39.221Z,73.70
2022-12-04T07:02:07.546Z,79.05
2022-12-04T07:04:37.113Z,83.65
2022-12-04T07:07:05.243Z,80.10
2022-12-04T07:09:33.377Z,79.25
2022-12-04T07:12:01.556Z,92.82
2022-12-04T07:14:29.749Z,67.25
2022-12-04T07:16:58.528Z,70.18
2022-12-04T07:19:26.751Z,75.40
2022-12-04T07:21:56.293Z,75.72
2022-12-04T07:24:24.463Z,73.80
2022-12-04T07:26:52.645Z,62.70
2022-12-04T07:29:20.760Z,68.90
2022-12-04T07:31:49.076Z,63.03
2022-12-04T07:34:17.246Z,64.68
2022-12-04T07:36:45.381Z,66.15
2022-12-04T07:39:15.709Z,72.78
2022-12-04T07:41:43.820Z,72.88
2022-12-04T07:44:12.273Z,67.18
2022-12-04T07:46:40.412Z,72.78
2022-12-04T07:49:08.593Z,75.70
2022-12-04T07:51:36.728Z,69.38
2022-12-04T07:54:04.924Z,70.68
2022-12-04T07:56:34.707Z,75.35
2022-12-04T07:59:03.795Z,68.13
2022-12-04T08:01:32.519Z,74.85
2022-12-04T08:04:03.354Z,68.63
2022-12-04T08:06:34.835Z,75.93
2022-12-04T08:09:09.159Z,72.45
2022-12-04T08:11:39.847Z,66.32
2022-12-04T08:14:09.826Z,78.32
2022-12-04T08:16:38.200Z,71.55
2022-12-04T08:19:06.520Z,69.28
2022-12-04T08:21:34.953Z,80.43
2022-12-04T08:24:03.583Z,88.50
2022-12-04T08:26:33.731Z,81.53
2022-12-04T08:29:04.480Z,82.30
2022-12-04T08:31:37.264Z,70.97
2022-12-04T08:34:07.789Z,80.22
2022-12-04T08:36:36.328Z,72.10
2022-12-04T08:39:04.957Z,70.07
2022-12-04T08:41:33.795Z,72.72
2022-12-04T08:44:03.396Z,65.68
2022-12-04T08:46:31.839Z,61.55
2022-12-04T08:49:00.317Z,62.53
2022-12-04T08:51:29.969Z,70.40
2022-12-04T08:53:59.942Z,93.72
2022-12-04T08:56:30.413Z,72.63
2022-12-04T08:58:59.113Z,67.63
2022-12-04T09:01:29.965Z,65.75
2022-12-04T09:03:58.938Z,61.20
2022-12-04T09:06:27.565Z,59.38
2022-12-04T09:08:56.305Z,65.95
2022-12-04T09:11:26.899Z,62.58
2022-12-04T09:13:55.884Z,66.10
2022-12-04T09:16:26.152Z,67.70
2022-12-04T09:18:56.346Z,64.18
2022-12-04T09:21:26.093Z,64.03
2022-12-04T09:24:03.570Z,60.42
2022-12-04T09:26:33.698Z,63.10
2022-12-04T09:29:06.748Z,63.97
2022-12-04T09:31:35.757Z,61.72
2022-12-04T09:34:05.329Z,59.80
2022-12-04T09:36:33.518Z,59.17
2022-12-04T09:39:01.678Z,62.28
2022-12-04T09:42:00.856Z,61.03
2022-12-04T09:44:33.976Z,59.17
2022-12-04T09:47:04.434Z,75.07
2022-12-04T09:49:39.782Z,62.88
2022-12-04T09:52:21.735Z,68.50
2022-12-04T09:54:52.155Z,62.38
2022-12-04T09:57:29.817Z,72.70
2022-12-04T09:59:58.715Z,71.85
2022-12-04T10:02:39.260Z,77.83
2022-12-04T10:05:19.980Z,89.00
2022-12-04T10:07:57.104Z,71.22
2022-12-04T10:10:35.345Z,74.47
2022-12-04T10:13:22.562Z,66.70
2022-12-04T10:15:54.640Z,66.47
2022-12-04T10:18:41.872Z,63.78
2022-12-04T10:21:27.020Z,61.17
2022-12-04T10:24:06.610Z,63.10
2022-12-04T10:26:40.460Z,97.63
2022-12-04T10:29:15.786Z,84.88
2022-12-04T10:31:47.041Z,80.43
2022-12-04T10:34:20.102Z,81.25
2022-12-04T10:36:53.091Z,82.57
2022-12-04T10:39:25.898Z,75.45
2022-12-04T10:41:59.162Z,74.82
2022-12-04T10:44:33.668Z,64.75
2022-12-04T10:47:05.486Z,61.92
2022-12-04T10:49:36.023Z,67.88
2022-12-04T10:52:06.450Z,63.80
2022-12-04T10:54:36.625Z,61.75
2022-12-04T10:57:07.302Z,60.10
2022-12-04T10:59:36.150Z,58.80
2022-12-04T11:02:12.744Z,58.35
2022-12-04T11:04:42.747Z,59.38
2022-12-04T11:07:25.711Z,55.33
2022-12-04T11:09:59.822Z,53.55
2022-12-04T11:12:28.810Z,51.40
2022-12-04T11:20:47.974Z,49.50
2022-12-04T11:23:19.035Z,48.28
2022-12-04T11:28:55.555Z,52.45
2022-12-04T11:31:38.159Z,54.08
2022-12-04T11:34:11.581Z,52.95
2022-12-04T11:36:42.408Z,51.65
2022-12-04T11:39:25.454Z,51.65
2022-12-04T11:42:05.131Z,56.88
2022-12-04T11:44:35.179Z,53.50
2022-12-04T11:47:05.318Z,51.25
2022-12-04T11:49:33.942Z,53.15
2022-12-04T11:52:15.507Z,50.60
2022-12-04T11:57:31.222Z,53.03
2022-12-04T12:00:10.831Z,50.83
2022-12-04T12:03:10.788Z,49.53
2022-12-04T12:06:14.945Z,52.60
2022-12-04T12:09:25.040Z,51.80
2022-12-04T12:11:58.965Z,54.28
2022-12-04T12:14:34.330Z,54.40
2022-12-04T12:17:12.775Z,52.03
2022-12-04T12:20:12.190Z,53.85
2022-12-04T12:23:12.442Z,53.60
2022-12-04T12:25:52.077Z,53.63
2022-12-04T12:29:12.864Z,55.33
2022-12-04T12:32:25.952Z,58.05
2022-12-04T12:35:10.614Z,55.08
2022-12-04T12:37:58.179Z,57.13
2022-12-04T12:40:46.851Z,57.47
2022-12-04T12:43:43.961Z,59.30
2022-12-04T12:46:48.104Z,60.22
2022-12-04T12:50:00.228Z,57.20
2022-12-04T12:52:55.587Z,58.72
2022-12-04T12:55:58.168Z,59.50
2022-12-04T12:58:48.395Z,57.72
2022-12-04T13:01:41.759Z,60.22
2022-12-04T13:04:26.028Z,56.92
2022-12-04T13:07:59.348Z,64.22
2022-12-04T13:10:48.299Z,61.95
2022-12-04T13:13:41.584Z,63.17
2022-12-04T13:16:57.775Z,61.83
2022-12-04T13:19:34.741Z,59.03
2022-12-04T13:22:29.761Z,58.35
2022-12-04T13:25:53.167Z,59.05
2022-12-04T13:29:16.222Z,65.38
2022-12-04T13:32:13.948Z,63.28
2022-12-04T13:35:19.624Z,60.55
2022-12-04T13:38:44.205Z,61.67
2022-12-04T13:41:46.887Z,62.45
2022-12-04T13:55:00.863Z,66.35
2022-12-04T13:57:29.293Z,71.10
2022-12-04T14:00:05.878Z,72.00
2022-12-04T14:02:38.328Z,70.07
2022-12-04T14:05:09.033Z,69.90
2022-12-04T14:07:39.826Z,77.70
2022-12-04T14:10:27.922Z,71.75
2022-12-04T14:13:01.817Z,70.15
2022-12-04T14:15:32.243Z,66.78
2022-12-04T14:18:03.957Z,63.65
2022-12-04T14:20:33.781Z,64.53
2022-12-04T14:23:26.610Z,69.13
2022-12-04T14:26:00.680Z,69.75
2022-12-04T14:28:42.404Z,66.20
2022-12-04T14:31:31.629Z,64.28
2022-12-04T14:34:02.696Z,62.80
2022-12-04T14:36:34.949Z,70.20
2022-12-04T14:39:10.130Z,66.60
2022-12-04T14:41:40.570Z,58.85
2022-12-04T14:44:15.970Z,64.13
2022-12-04T14:46:48.691Z,60.53
2022-12-04T14:49:30.136Z,59.97
2022-12-04T14:52:07.311Z,58.50
2022-12-04T14:54:41.968Z,62.42
2022-12-04T14:57:25.549Z,61.05
2022-12-04T14:59:55.664Z,61.58
2022-12-04T15:02:29.709Z,62.78
2022-12-04T15:04:58.374Z,57.53
2022-12-04T15:07:30.480Z,58.90
2022-12-04T15:10:18.192Z,57.85
2022-12-04T15:12:49.981Z,56.95
2022-12-04T15:15:25.355Z,59.70
2022-12-04T15:18:02.345Z,56.22
2022-12-04T15:20:38.678Z,57.45
2022-12-04T15:23:07.415Z,54.08
2022-12-04T15:25:41.921Z,52.15
2022-12-04T15:28:17.893Z,53.67
2022-12-04T15:30:50.815Z,51.75
2022-12-04T15:33:23.246Z,54.80
2022-12-04T15:35:56.272Z,56.85
2022-12-04T15:38:24.776Z,53.53
2022-12-04T15:40:55.611Z,56.83
2022-12-04T15:43:41.983Z,54.78
2022-12-04T15:46:14.328Z,56.05
2022-12-04T15:48:47.603Z,56.35
2022-12-04T15:51:17.900Z,56.85
2022-12-04T15:53:47.851Z,58.42
2022-12-04T15:56:19.561Z,59.92
2022-12-04T15:59:00.064Z,60.47
2022-12-04T16:01:28.631Z,54.22
2022-12-04T16:03:57.520Z,56.70
2022-12-04T16:06:28.402Z,57.90
2022-12-04T16:09:03.613Z,56.22
2022-12-04T16:11:34.625Z,55.88
2022-12-04T16:14:20.295Z,67.07
2022-12-04T16:16:50.476Z,69.75
2022-12-04T16:19:30.565Z,66.40
2022-12-04T16:21:58.764Z,69.07
2022-12-04T16:24:29.791Z,78.45
2022-12-04T16:27:00.068Z,67.97
2022-12-04T16:29:30.536Z,77.10
2022-12-04T16:32:03.261Z,63.47
2022-12-04T16:34:31.877Z,73.45
2022-12-04T16:37:00.736Z,54.55
2022-12-04T16:39:28.864Z,78.80
2022-12-04T16:41:56.980Z,62.10
2022-12-04T16:44:27.792Z,59.55
2022-12-04T16:46:57.327Z,72.00
2022-12-04T16:49:31.522Z,66.20
2022-12-04T16:52:05.317Z,68.50
2022-12-04T16:54:33.640Z,58.17
2022-12-04T16:57:01.941Z,73.68
2022-12-04T16:59:30.100Z,65.00
2022-12-04T17:02:01.371Z,63.42
2022-12-04T17:04:29.720Z,64.05
2022-12-04T17:06:57.924Z,76.22
2022-12-04T17:09:28.901Z,63.05
2022-12-04T17:11:57.073Z,68.43
2022-12-04T17:14:25.196Z,80.30
2022-12-04T17:16:55.027Z,70.93
2022-12-04T17:19:24.595Z,62.40
2022-12-04T17:21:52.712Z,46.15
2022-12-04T17:24:20.862Z,45.75
2022-12-04T17:26:49.022Z,61.72
2022-12-04T17:29:20.257Z,49.78
2022-12-04T17:31:48.411Z,56.72
2022-12-04T17:34:17.564Z,59.03
2022-12-04T17:36:47.061Z,51.50
2022-12-04T17:39:15.169Z,47.58
2022-12-04T17:41:43.280Z,56.83
2022-12-04T17:44:11.414Z,48.80
2022-12-04T17:46:39.610Z,49.53
2022-12-04T17:49:07.776Z,51.90
2022-12-04T17:51:36.184Z,48.35
2022-12-04T17:54:06.485Z,44.55
2022-12-04T17:56:37.796Z,47.13
2022-12-04T17:59:06.822Z,60.38
2022-12-04T18:01:43.940Z,58.20
2022-12-04T18:04:20.704Z,70.05
2022-12-04T18:06:49.257Z,53.38
2022-12-04T18:09:18.896Z,48.88
2022-12-04T18:11:48.536Z,45.90
2022-12-04T18:14:19.344Z,48.22
2022-12-04T18:16:52.021Z,62.80
2022-12-04T18:19:21.360Z,50.85
2022-12-04T18:21:49.764Z,61.75
2022-12-04T18:24:19.804Z,56.85
2022-12-04T18:26:51.438Z,58.67
2022-12-04T18:29:21.765Z,47.55
2022-12-04T18:31:53.466Z,57.35
2022-12-04T18:34:22.823Z,53.90
2022-12-04T18:36:51.357Z,73.47
2022-12-04T18:39:23.168Z,58.30
2022-12-04T18:41:51.806Z,54.30
2022-12-04T18:44:19.992Z,50.55
2022-12-04T18:46:51.090Z,50.03
2022-12-04T18:49:19.234Z,55.50
2022-12-04T18:51:49.968Z,65.93
2022-12-04T18:54:27.381Z,58.05
2022-12-04T18:56:55.600Z,55.67
2022-12-04T18:59:28.988Z,54.70
2022-12-04T19:02:00.291Z,62.90
2022-12-04T19:04:31.488Z,63.20
2022-12-04T19:06:59.912Z,50.63
2022-12-04T19:12:18.496Z,58.80
2022-12-04T19:14:49.198Z,46.58
2022-12-04T19:17:20.619Z,63.00
2022-12-04T19:19:51.529Z,47.63
2022-12-04T19:22:19.783Z,42.72
2022-12-04T19:24:49.606Z,43.97
2022-12-04T19:27:20.544Z,46.45
2022-12-04T19:29:55.565Z,47.00
2022-12-04T19:32:24.754Z,42.53
2022-12-04T19:34:52.904Z,41.13
2022-12-04T19:37:21.177Z,47.63
2022-12-04T19:39:50.667Z,49.30
2022-12-04T19:42:21.840Z,38.50
2022-12-04T19:44:50.262Z,43.40
2022-12-04T19:47:19.030Z,49.72
2022-12-04T19:49:47.561Z,43.13
2022-12-04T19:52:15.749Z,46.33
2022-12-04T19:54:46.707Z,55.95
2022-12-04T19:57:18.972Z,50.50
2022-12-04T19:59:49.958Z,45.70
2022-12-04T20:02:19.807Z,44.55
2022-12-04T20:04:48.029Z,44.22
2022-12-04T20:07:16.187Z,51.85
2022-12-04T20:09:52.017Z,48.05
2022-12-04T20:12:22.037Z,44.42
2022-12-04T20:14:50.225Z,38.55
2022-12-04T20:17:18.364Z,48.75
2022-12-04T20:19:46.538Z,40.78
2022-12-04T20:22:17.497Z,43.33
2022-12-04T20:24:52.885Z,46.63
2022-12-04T20:27:22.398Z,46.90
2022-12-04T20:29:50.512Z,49.90
2022-12-04T20:32:18.616Z,42.60
2022-12-04T20:34:49.733Z,47.88
2022-12-04T20:37:17.884Z,40.40
2022-12-04T20:39:49.015Z,42.22
2022-12-04T20:42:17.252Z,44.15
2022-12-04T20:44:46.884Z,47.05
2022-12-04T20:47:15.337Z,49.13
2022-12-04T20:49:43.610Z,39.40
2022-12-04T20:52:11.720Z,44.00
2022-12-04T20:54:41.754Z,41.67
2022-12-04T20:57:10.519Z,39.10
2022-12-04T20:59:38.899Z,39.88
2022-12-04T21:02:11.733Z,35.25
2022-12-04T21:04:42.520Z,37.75
2022-12-04T21:07:10.653Z,35.42
2022-12-04T21:09:38.806Z,37.25
2022-12-04T21:12:28.384Z,41.15
2022-12-04T21:15:14.900Z,38.83
2022-12-04T21:17:44.420Z,32.47
2022-12-04T21:20:15.629Z,35.80
2022-12-04T21:22:43.797Z,31.83
2022-12-04T21:25:12.340Z,31.85
2022-12-04T21:27:40.460Z,30.45
2022-12-04T21:30:09.860Z,27.73
2022-12-04T21:32:37.979Z,28.17
2022-12-04T21:35:08.219Z,27.77
2022-12-04T21:37:36.908Z,29.30
2022-12-04T21:40:08.096Z,27.55
2022-12-04T21:42:36.656Z,28.73
2022-12-04T21:45:07.622Z,26.77
2022-12-04T21:47:36.403Z,27.48
2022-12-04T21:50:05.240Z,26.08
2022-12-04T21:52:34.763Z,31.17
2022-12-04T21:55:02.966Z,38.63
2022-12-04T21:57:31.120Z,44.00
2022-12-04T21:59:59.524Z,36.10
2022-12-04T22:02:27.903Z,32.58
2022-12-04T22:04:56.099Z,27.45
2022-12-04T22:07:24.220Z,27.25
2022-12-04T22:09:53.724Z,31.90
2022-12-04T22:15:10.772Z,24.90
2022-12-04T22:17:38.892Z,23.38
2022-12-04T22:20:08.557Z,23.15
2022-12-04T22:22:36.729Z,20.55
2022-12-04T22:25:06.984Z,21.08
2022-12-04T22:27:35.160Z,20.85
2022-12-04T22:30:03.592Z,21.38
2022-12-04T22:32:32.110Z,21.23
2022-12-04T22:35:00.257Z,21.80
2022-12-04T22:37:28.376Z,20.38
2022-12-04T22:39:59.668Z,20.40
2022-12-04T22:42:29.521Z,20.42
2022-12-04T22:44:57.691Z,20.35
2022-12-04T22:47:25.824Z,19.40
2022-12-04T22:49:54.075Z,18.13
2022-12-04T22:52:22.375Z,19.33
2022-12-04T22:54:51.829Z,18.85
2022-12-04T22:57:20.321Z,18.05
2022-12-04T22:59:49.838Z,17.55
2022-12-04T23:02:17.978Z,17.92
2022-12-04T23:04:46.244Z,18.17
2022-12-04T23:07:14.434Z,17.10
2022-12-04T23:09:42.724Z,17.23
2022-12-04T23:12:10.883Z,17.23
2022-12-04T23:14:39.058Z,17.65
2022-12-04T23:17:08.629Z,18.20
2022-12-04T23:19:37.019Z,16.13
2022-12-04T23:22:05.141Z,15.77
2022-12-04T23:24:33.408Z,15.05
2022-12-04T23:27:01.552Z,15.13
2022-12-04T23:29:51.993Z,14.82
2022-12-04T23:32:19.438Z,14.80
2022-12-04T23:34:47.623Z,14.25
2022-12-04T23:37:16.109Z,14.15
2022-12-04T23:39:44.258Z,13.50
2022-12-04T23:42:12.390Z,14.02
2022-12-04T23:44:40.637Z,13.82
2022-12-04T23:47:08.803Z,13.07
2022-12-04T23:49:38.384Z,14.25
2022-12-04T23:52:06.684Z,14.55
2022-12-04T23:54:37.621Z,14.13
2022-12-04T23:57:06.176Z,14.80
2022-12-04T23:59:34.660Z,14.70
